Time;durP1;ratioP1;P1;durP2;ratioP2;P2;SDS_P1;SDS_P2;PMS_P1;PMS_P2;Temp;Humidity;BMP_temperature;BMP_pressure;BME280_temperature;BME280_humidity;BME280_pressure;Samples;Min_cycle;Max_cycle;Signal;HPM_P1;HPM_P2
2022/12/26 00:01:21;;;;;;;7.45;1.58;;;;;;;2.57;100.00;99806.38;5048577;28;20025;-85
2022/12/26 00:03:47;;;;;;;5.97;1.27;;;;;;;2.52;100.00;99802.41;5044186;28;20469;-85
2022/12/26 00:06:18;;;;;;;6.68;1.27;;;;;;;2.52;100.00;99808.47;5036292;28;20143;-84
2022/12/26 00:08:44;;;;;;;8.18;1.73;;;;;;;2.50;100.00;99809.53;5043145;28;20051;-85
2022/12/26 00:11:11;;;;;;;12.52;4.30;;;;;;;2.51;100.00;99801.59;5027374;28;20041;-85
2022/12/26 00:13:39;;;;;;;15.85;5.60;;;;;;;2.52;100.00;99811.09;5028321;28;20079;-84
2022/12/26 00:16:16;;;;;;;9.48;2.40;;;;;;;2.52;100.00;99805.03;5048226;28;20150;-85
2022/12/26 00:18:42;;;;;;;8.38;1.60;;;;;;;2.48;100.00;99807.03;5042921;28;20559;-85
2022/12/26 00:21:10;;;;;;;5.90;1.48;;;;;;;2.44;100.00;99809.03;5043119;28;20029;-85
2022/12/26 00:23:37;;;;;;;4.60;0.95;;;;;;;2.42;100.00;99808.28;5044914;28;20071;-85
2022/12/26 00:26:18;;;;;;;5.80;1.30;;;;;;;2.44;100.00;99818.63;5028867;28;20108;-85
2022/12/26 00:28:44;;;;;;;8.80;1.27;;;;;;;2.42;100.00;99817.91;5047778;28;20044;-85
2022/12/26 00:31:17;;;;;;;3.30;0.80;;;;;;;2.44;100.00;99824.69;5028840;28;20045;-85
2022/12/26 00:33:45;;;;;;;4.03;1.13;;;;;;;2.45;100.00;99828.13;4975997;28;20125;-85
2022/12/26 00:36:24;;;;;;;8.48;1.65;;;;;;;2.45;100.00;99839.38;5026868;28;20126;-85
2022/12/26 00:38:51;;;;;;;5.80;1.30;;;;;;;2.38;100.00;99835.53;5042798;28;20033;-85
2022/12/26 00:41:19;;;;;;;6.18;0.98;;;;;;;2.37;100.00;99846.06;5047012;28;20119;-85
2022/12/26 00:43:46;;;;;;;5.10;1.02;;;;;;;2.29;100.00;99851.81;5010867;28;20061;-85
2022/12/26 00:46:13;;;;;;;11.85;1.25;;;;;;;2.25;100.00;99853.81;5030199;28;20470;-85
2022/12/26 00:48:42;;;;;;;9.43;1.48;;;;;;;2.22;100.00;99861.84;5031725;28;20048;-85
2022/12/26 00:51:08;;;;;;;5.03;1.10;;;;;;;2.21;100.00;99861.00;5030095;28;20045;-80
2022/12/26 00:53:34;;;;;;;5.43;1.00;;;;;;;2.20;100.00;99868.91;5044779;28;20068;-80
2022/12/26 00:56:02;;;;;;;4.50;1.13;;;;;;;2.15;100.00;99866.63;5046479;28;20064;-86
2022/12/26 00:58:28;;;;;;;1.92;0.75;;;;;;;2.10;100.00;99863.50;5024392;28;20059;-85
2022/12/26 01:00:55;;;;;;;5.40;1.50;;;;;;;2.02;100.00;99860.59;5041195;28;20740;-85
2022/12/26 01:03:21;;;;;;;3.08;0.90;;;;;;;2.02;100.00;99871.84;5061193;28;20165;-85
2022/12/26 01:05:50;;;;;;;2.53;1.00;;;;;;;1.98;100.00;99876.44;5037084;28;20036;-84
2022/12/26 01:08:17;;;;;;;5.60;0.60;;;;;;;1.95;100.00;99875.78;5043830;28;20548;-84
2022/12/26 01:10:46;;;;;;;2.30;0.70;;;;;;;1.93;100.00;99883.72;5040693;28;20060;-85
2022/12/26 01:13:13;;;;;;;8.68;0.95;;;;;;;1.95;100.00;99889.66;5042414;28;20036;-85
2022/12/26 01:15:39;;;;;;;6.50;0.80;;;;;;;1.98;100.00;99886.00;5058769;28;20024;-85
2022/12/26 01:18:06;;;;;;;5.32;1.20;;;;;;;2.04;100.00;99890.00;5034776;28;20128;-84
2022/12/26 01:20:32;;;;;;;5.68;1.10;;;;;;;2.08;100.00;99891.44;5040700;28;20040;-84
2022/12/26 01:22:58;;;;;;;11.65;1.30;;;;;;;2.11;100.00;99896.47;5027365;28;20035;-85
2022/12/26 01:25:24;;;;;;;5.15;1.13;;;;;;;2.15;100.00;99900.50;5047276;28;20126;-84
2022/12/26 01:27:50;;;;;;;7.97;1.25;;;;;;;2.16;100.00;99906.56;5048119;28;20481;-85
2022/12/26 01:30:16;;;;;;;3.03;1.00;;;;;;;2.13;100.00;99904.19;5050287;28;20035;-85
2022/12/26 01:32:42;;;;;;;4.50;0.57;;;;;;;2.05;100.00;99902.09;5026076;28;20044;-84
2022/12/26 01:35:08;;;;;;;2.22;0.60;;;;;;;2.01;100.00;99911.88;5047821;28;20029;-85
2022/12/26 01:37:35;;;;;;;3.17;0.80;;;;;;;1.96;100.00;99916.56;5037355;28;20083;-85
2022/12/26 01:40:01;;;;;;;6.00;1.10;;;;;;;1.93;100.00;99924.56;5049537;28;20033;-84
2022/12/26 01:42:37;;;;;;;3.42;1.63;;;;;;;1.91;100.00;99939.50;5048523;28;20390;-85
2022/12/26 01:45:23;;;;;;;4.75;0.68;;;;;;;1.86;100.00;99934.59;5039845;28;20078;-85
2022/12/26 01:47:52;;;;;;;4.50;0.60;;;;;;;1.79;100.00;99933.31;5056114;28;20116;-84
2022/12/26 01:50:31;;;;;;;8.73;1.60;;;;;;;1.76;100.00;99946.53;5050107;28;20025;-85
2022/12/26 01:53:01;;;;;;;5.70;0.70;;;;;;;1.72;100.00;99948.53;5044710;28;20033;-85
2022/12/26 01:55:29;;;;;;;3.10;0.80;;;;;;;1.72;100.00;99948.53;5046493;28;20041;-85
2022/12/26 01:58:01;;;;;;;4.68;1.08;;;;;;;1.75;100.00;99952.69;5046627;28;20033;-84
2022/12/26 02:00:28;;;;;;;2.85;0.73;;;;;;;1.73;100.00;99953.63;5028279;28;20040;-84
2022/12/26 02:05:38;;;;;;;3.65;0.98;;;;;;;1.79;100.00;99962.81;5047311;28;20052;-85
2022/12/26 02:08:11;;;;;;;4.88;0.80;;;;;;;1.79;100.00;99962.81;5021200;28;20043;-85
2022/12/26 02:11:13;;;;;;;3.85;0.85;;;;;;;1.73;100.00;99965.81;4981671;28;20045;-84
2022/12/26 02:13:39;;;;;;;7.50;1.05;;;;;;;1.71;100.00;99963.31;5014529;28;20044;-84
2022/12/26 02:16:07;;;;;;;4.35;0.85;;;;;;;1.73;100.00;99960.59;5014446;28;20048;-84
2022/12/26 02:18:34;;;;;;;5.50;0.90;;;;;;;1.79;100.00;99969.78;5016832;28;20037;-84
2022/12/26 02:21:30;;;;;;;5.35;0.85;;;;;;;1.81;100.00;99966.16;5051613;28;20037;-84
2022/12/26 02:24:23;;;;;;;8.30;0.90;;;;;;;1.79;100.00;99973.22;5025004;28;20044;-83
2022/12/26 02:27:28;;;;;;;5.20;0.60;;;;;;;1.76;100.00;99969.97;5052255;28;20128;-84
2022/12/26 02:30:01;;;;;;;4.35;0.63;;;;;;;1.75;100.00;99982.19;5013575;28;20477;-85
2022/12/26 02:32:36;;;;;;;3.05;0.60;;;;;;;1.77;100.00;99990.72;5036557;28;20069;-84
2022/12/26 02:35:28;;;;;;;3.78;0.50;;;;;;;1.73;100.00;99997.09;5046895;28;20037;-80
2022/12/26 02:38:23;;;;;;;7.07;1.33;;;;;;;1.71;100.00;100002.41;5047402;28;20404;-79
2022/12/26 02:40:59;;;;;;;3.53;0.65;;;;;;;1.65;100.00;100004.53;5045382;28;20044;-79
2022/12/26 02:43:59;;;;;;;4.78;1.15;;;;;;;1.59;100.00;100011.00;5047455;28;20041;-80
2022/12/26 02:47:04;;;;;;;5.38;1.50;;;;;;;1.58;100.00;100007.53;5049427;28;20040;-84
2022/12/26 03:14:56;;;;;;;6.90;0.80;;;;;;;1.83;100.00;100021.59;5050391;28;20504;-79
2022/12/26 03:17:29;;;;;;;6.43;0.60;;;;;;;1.85;100.00;100027.56;5049642;28;20069;-79
2022/12/26 03:20:02;;;;;;;4.18;0.70;;;;;;;1.83;100.00;100023.41;5012892;28;20025;-79
2022/12/26 03:22:40;;;;;;;6.10;1.05;;;;;;;1.84;100.00;100027.66;5038344;28;20543;-79
2022/12/26 03:27:58;;;;;;;5.65;1.02;;;;;;;1.86;100.00;100037.03;5011374;28;20579;-84
2022/12/26 03:34:16;;;;;;;8.70;1.05;;;;;;;1.88;100.00;100043.94;5040585;28;20040;-84
2022/12/26 03:35:55;;;;;;;3.47;0.88;;;;;;;1.89;100.00;100048.22;5044973;28;20374;-80
2022/12/26 03:38:28;;;;;;;4.25;0.65;;;;;;;1.88;100.00;100041.34;5051085;28;20079;-79
2022/12/26 04:19:23;;;;;;;2.30;0.70;;;;;;;1.30;100.00;100060.50;5045827;28;20051;-84
2022/12/26 04:45:05;;;;;;;6.07;0.82;;;;;;;0.95;100.00;100085.13;5047788;28;20067;-84
2022/12/26 04:47:32;;;;;;;5.53;0.93;;;;;;;0.93;100.00;100087.81;5020422;28;20394;-83
2022/12/26 04:50:13;;;;;;;7.85;0.88;;;;;;;0.92;100.00;100085.31;5045430;28;20041;-84
2022/12/26 04:52:58;;;;;;;6.70;1.08;;;;;;;0.92;100.00;100082.72;5036547;28;20094;-84
2022/12/26 04:55:31;;;;;;;5.25;1.00;;;;;;;0.91;100.00;100087.06;5053806;28;20069;-84
2022/12/26 04:57:57;;;;;;;7.20;1.73;;;;;;;0.90;100.00;100082.81;5030086;28;20091;-84
2022/12/26 05:00:26;;;;;;;1.38;0.57;;;;;;;0.90;100.00;100087.16;5016106;28;20041;-83
2022/12/26 05:11:27;;;;;;;10.15;1.20;;;;;;;0.84;100.00;100080.56;5050420;28;20120;-84
2022/12/26 05:13:55;;;;;;;2.75;0.90;;;;;;;0.82;100.00;100078.06;5048508;28;20079;-84
2022/12/26 05:30:22;;;;;;;4.53;1.17;;;;;;;0.58;100.00;100114.97;5041340;28;20517;-84
2022/12/26 05:35:34;;;;;;;7.88;0.95;;;;;;;0.61;100.00;100121.75;5047385;28;20040;-78
2022/12/26 05:38:01;;;;;;;7.60;0.88;;;;;;;0.61;100.00;100125.19;5048042;28;20029;-79
2022/12/26 05:40:26;;;;;;;5.72;0.50;;;;;;;0.64;100.00;100123.34;5048194;28;20125;-84
2022/12/26 05:42:52;;;;;;;4.10;0.55;;;;;;;0.64;100.00;100123.34;5066338;28;20063;-84
2022/12/26 05:45:18;;;;;;;4.22;0.80;;;;;;;0.63;100.00;100134.66;5050912;28;20041;-84
2022/12/26 05:47:43;;;;;;;5.03;0.90;;;;;;;0.65;100.00;100133.66;5050909;28;20037;-84
2022/12/26 05:50:09;;;;;;;4.30;1.10;;;;;;;0.64;100.00;100134.59;5050519;28;20037;-80
2022/12/26 05:52:35;;;;;;;7.03;0.93;;;;;;;0.67;100.00;100130.97;5051427;28;20508;-79
2022/12/26 05:55:01;;;;;;;4.38;0.68;;;;;;;0.66;100.00;100127.53;5034962;28;20063;-84
2022/12/26 05:57:27;;;;;;;9.57;0.98;;;;;;;0.67;100.00;100141.38;5040618;28;20045;-84
2022/12/26 05:59:52;;;;;;;5.60;0.80;;;;;;;0.67;100.00;100136.19;5012626;28;20061;-84
2022/12/26 06:02:18;;;;;;;3.15;0.75;;;;;;;0.71;100.00;100146.31;5044623;28;20049;-84
2022/12/26 06:04:44;;;;;;;1.73;0.45;;;;;;;0.76;100.00;100143.47;5045796;28;20037;-84
2022/12/26 06:07:10;;;;;;;3.88;1.10;;;;;;;0.81;100.00;100159.63;5018118;28;20037;-79
2022/12/26 06:09:36;;;;;;;5.60;0.70;;;;;;;0.88;100.00;100162.72;5037268;28;20528;-79
2022/12/26 06:12:01;;;;;;;1.88;0.45;;;;;;;0.89;100.00;100168.78;5037690;28;20039;-84
2022/12/26 06:14:27;;;;;;;4.72;0.73;;;;;;;0.88;100.00;100162.72;5034655;28;20037;-84
2022/12/26 06:16:53;;;;;;;5.15;0.85;;;;;;;0.92;100.00;100171.19;5023376;28;20397;-84
2022/12/26 06:19:19;;;;;;;6.10;0.80;;;;;;;0.91;100.00;100169.53;5051909;28;20489;-84
2022/12/26 06:21:45;;;;;;;3.47;0.63;;;;;;;0.90;100.00;100162.63;5048598;28;20048;-84
2022/12/26 06:24:12;;;;;;;3.63;0.60;;;;;;;0.91;100.00;100166.94;5061350;28;20035;-84
2022/12/26 06:26:39;;;;;;;3.63;0.80;;;;;;;0.91;100.00;100174.72;5041094;28;20104;-80
2022/12/26 06:29:05;;;;;;;6.97;0.65;;;;;;;0.93;100.00;100167.66;5050062;28;20043;-79
2022/12/26 06:31:31;;;;;;;4.20;0.65;;;;;;;0.94;100.00;100166.75;5037961;28;20044;-84
2022/12/26 06:33:57;;;;;;;2.15;0.77;;;;;;;0.93;100.00;100165.06;5051034;28;20037;-84
2022/12/26 06:36:24;;;;;;;2.78;1.20;;;;;;;0.97;100.00;100169.16;5050226;28;20032;-84
2022/12/26 06:38:52;;;;;;;4.90;0.65;;;;;;;0.99;100.00;100177.72;5034176;28;20032;-84
2022/12/26 06:41:19;;;;;;;8.15;0.45;;;;;;;0.98;100.00;100168.22;5014965;28;20099;-79
2022/12/26 06:43:46;;;;;;;5.28;0.65;;;;;;;0.97;100.00;100166.56;5050251;28;20040;-79
2022/12/26 06:46:14;;;;;;;3.15;0.60;;;;;;;0.98;100.00;100173.44;5054155;28;20055;-84
2022/12/26 06:48:40;;;;;;;4.47;1.77;;;;;;;0.97;100.00;100170.00;5056088;28;20044;-84
2022/12/26 06:51:10;;;;;;;6.75;1.00;;;;;;;0.99;100.00;100178.56;5047624;28;20056;-79
2022/12/26 06:53:36;;;;;;;4.07;0.70;;;;;;;0.98;100.00;100174.28;5049551;28;20795;-79
2022/12/26 06:56:16;;;;;;;7.68;1.60;;;;;;;0.97;100.00;100172.59;5062075;28;20040;-84
2022/12/26 06:58:43;;;;;;;5.93;0.77;;;;;;;0.97;100.00;100180.41;5050456;28;20029;-84
2022/12/26 07:01:17;;;;;;;2.55;0.65;;;;;;;0.98;100.00;100183.84;5042575;28;20052;-79
2022/12/26 07:03:44;;;;;;;7.40;0.80;;;;;;;0.94;100.00;100191.00;5064434;28;20045;-79
2022/12/26 07:06:19;;;;;;;8.50;0.90;;;;;;;0.95;100.00;100192.69;5046043;28;20033;-79
2022/12/26 07:08:45;;;;;;;8.88;0.80;;;;;;;0.93;100.00;100188.47;5047686;28;20041;-79
2022/12/26 07:11:16;;;;;;;9.55;0.98;;;;;;;0.95;100.00;100184.88;5049227;28;20036;-84
2022/12/26 07:13:42;;;;;;;6.10;0.82;;;;;;;0.95;100.00;100187.47;5046703;28;20076;-84
2022/12/26 07:16:12;;;;;;;2.45;0.63;;;;;;;0.92;100.00;100189.41;5032887;28;20499;-84
2022/12/26 07:18:38;;;;;;;3.90;1.13;;;;;;;0.94;100.00;100193.59;5031156;28;20072;-84
2022/12/26 07:21:05;;;;;;;9.52;1.77;;;;;;;0.94;100.00;100197.97;5046468;28;20094;-79
2022/12/26 07:23:31;;;;;;;6.10;0.68;;;;;;;0.94;100.00;100197.97;5051777;28;20043;-79
2022/12/26 07:25:57;;;;;;;2.70;0.60;;;;;;;0.95;100.00;100195.28;5034331;28;20063;-84
2022/12/26 07:28:23;;;;;;;6.72;0.60;;;;;;;0.96;100.00;100190.91;5050369;28;20064;-85
2022/12/26 07:30:49;;;;;;;5.18;0.85;;;;;;;0.98;100.00;100191.66;5024944;28;20059;-84
2022/12/26 07:33:15;;;;;;;4.50;0.90;;;;;;;0.99;100.00;100195.94;5037494;28;20033;-85
2022/12/26 07:35:42;;;;;;;2.70;0.70;;;;;;;1.00;100.00;100192.41;5029613;28;20040;-84
2022/12/26 07:38:08;;;;;;;6.68;0.50;;;;;;;0.99;100.00;100194.16;5048945;28;20037;-84
2022/12/26 07:40:34;;;;;;;4.72;0.75;;;;;;;0.99;100.00;100206.34;5017067;28;20025;-79
2022/12/26 07:42:59;;;;;;;4.07;0.50;;;;;;;0.97;100.00;100213.41;5049266;28;20040;-79
2022/12/26 07:45:25;;;;;;;6.78;0.70;;;;;;;0.96;100.00;100211.72;5031456;28;20127;-79
2022/12/26 07:47:55;;;;;;;6.93;1.08;;;;;;;0.98;100.00;100228.94;5048130;28;20103;-79
2022/12/26 07:50:22;;;;;;;2.75;0.60;;;;;;;0.97;100.00;100229.03;5038135;28;20041;-84
2022/12/26 07:52:48;;;;;;;3.38;0.93;;;;;;;0.98;100.00;100235.91;5046751;28;20389;-84
2022/12/26 07:55:13;;;;;;;8.35;0.88;;;;;;;0.99;100.00;100230.63;5031910;28;20040;-84
2022/12/26 07:57:39;;;;;;;5.05;0.65;;;;;;;1.05;100.00;100239.00;5046277;28;20441;-84
2022/12/26 08:00:06;;;;;;;4.32;0.82;;;;;;;1.11;100.00;100239.47;5044608;28;20816;-84
2022/12/26 08:02:37;;;;;;;12.98;0.70;;;;;;;1.12;100.00;100237.72;5048971;28;20067;-84
2022/12/26 08:05:03;;;;;;;7.63;0.50;;;;;;;1.14;100.00;100238.47;5031289;28;20485;-79
2022/12/26 08:07:29;;;;;;;0.93;0.47;;;;;;;1.17;100.00;100248.72;5055027;28;20489;-79
2022/12/26 08:09:55;;;;;;;5.05;1.08;;;;;;;1.21;100.00;100244.19;5048348;28;20059;-84
2022/12/26 08:12:23;;;;;;;3.85;0.60;;;;;;;1.22;100.00;100251.91;5039112;28;20043;-84
2022/12/26 08:14:49;;;;;;;1.67;0.60;;;;;;;1.30;100.00;100254.06;5044281;28;20124;-84
2022/12/26 08:17:16;;;;;;;1.98;0.50;;;;;;;1.30;100.00;100255.81;5037742;28;20103;-84
2022/12/26 08:19:43;;;;;;;2.63;0.57;;;;;;;1.29;100.00;100265.38;5048374;28;20370;-84
2022/12/26 08:22:09;;;;;;;3.15;0.50;;;;;;;1.29;100.00;100273.19;5048226;28;20032;-84
2022/12/26 08:24:34;;;;;;;3.85;0.95;;;;;;;1.32;100.00;100296.44;5074176;28;20044;-84
2022/12/26 08:27:00;;;;;;;4.43;0.93;;;;;;;1.34;100.00;100307.63;5061293;28;20055;-84
2022/12/26 08:29:26;;;;;;;2.83;0.70;;;;;;;1.39;100.00;100302.16;5046138;28;20037;-84
2022/12/26 08:31:52;;;;;;;3.08;0.77;;;;;;;1.43;100.00;100302.81;5023460;28;20047;-84
2022/12/26 08:34:17;;;;;;;3.33;0.60;;;;;;;1.48;100.00;100301.63;5052157;28;20036;-86
2022/12/26 08:36:43;;;;;;;3.65;0.63;;;;;;;1.49;100.00;100297.25;5061251;28;20032;-79
2022/12/26 08:39:09;;;;;;;2.97;0.55;;;;;;;1.51;100.00;100308.44;5029099;28;20048;-79
2022/12/26 08:41:35;;;;;;;5.22;0.70;;;;;;;1.50;100.00;100306.72;5029538;28;20029;-85
2022/12/26 08:44:01;;;;;;;3.55;0.75;;;;;;;1.48;100.00;100300.78;5030745;28;20079;-85
2022/12/26 08:46:28;;;;;;;6.10;0.70;;;;;;;1.46;100.00;100310.47;5047173;28;20041;-85
2022/12/26 08:48:54;;;;;;;4.47;0.55;;;;;;;1.47;100.00;100312.13;5043754;28;20091;-84
2022/12/26 08:51:23;;;;;;;1.77;0.30;;;;;;;1.45;100.00;100314.00;5059928;28;20067;-85
2022/12/26 08:53:50;;;;;;;5.68;0.50;;;;;;;1.43;100.00;100315.84;5046203;28;20036;-85
2022/12/26 08:56:19;;;;;;;3.70;0.60;;;;;;;1.41;100.00;100330.72;5048237;28;20044;-85
2022/12/26 08:58:45;;;;;;;6.25;0.90;;;;;;;1.40;100.00;100322.03;5028725;28;20423;-85
2022/12/26 09:01:16;;;;;;;2.28;0.90;;;;;;;1.43;100.00;100319.28;5026434;28;20040;-85
2022/12/26 09:03:43;;;;;;;7.90;1.20;;;;;;;1.41;100.00;100317.69;5057752;28;20045;-85
2022/12/26 09:06:11;;;;;;;3.65;0.65;;;;;;;1.40;100.00;100323.84;5050987;28;20132;-85
2022/12/26 09:08:37;;;;;;;2.13;0.40;;;;;;;1.41;100.00;100315.94;5049114;28;20041;-86
2022/12/26 09:11:06;;;;;;;6.93;1.20;;;;;;;1.43;100.00;100323.66;5047319;28;20037;-85
2022/12/26 09:13:32;;;;;;;2.85;0.60;;;;;;;1.42;100.00;100322.00;5039298;28;20045;-85
2022/12/26 09:16:08;;;;;;;3.75;0.93;;;;;;;1.42;100.00;100332.41;5043774;28;20052;-85
2022/12/26 09:18:34;;;;;;;2.20;0.82;;;;;;;1.36;100.00;100329.22;5039866;28;20390;-84
2022/12/26 09:21:02;;;;;;;1.58;0.43;;;;;;;1.40;100.00;100323.84;5057497;28;20558;-79
2022/12/26 09:23:28;;;;;;;3.28;0.57;;;;;;;1.40;100.00;100334.25;5025657;28;20045;-79
2022/12/26 09:25:55;;;;;;;2.35;0.30;;;;;;;1.43;100.00;100344.50;5047698;28;20056;-79
2022/12/26 09:28:21;;;;;;;2.72;0.50;;;;;;;1.46;100.00;100344.31;5048073;28;20025;-79
2022/12/26 09:30:47;;;;;;;2.13;0.55;;;;;;;1.47;100.00;100349.44;5045361;28;20030;-79
2022/12/26 09:33:13;;;;;;;1.90;0.40;;;;;;;1.49;100.00;100354.56;5045937;28;20029;-79
2022/12/26 09:35:39;;;;;;;2.30;0.30;;;;;;;1.48;100.00;100356.31;5026229;28;20037;-79
2022/12/26 09:38:05;;;;;;;7.03;0.93;;;;;;;1.54;100.00;100356.91;5041361;28;20086;-79
2022/12/26 09:40:55;;;;;;;1.60;0.40;;;;;;;1.59;100.00;100342.66;5031253;28;20029;-84
2022/12/26 09:43:37;;;;;;;7.35;0.60;;;;;;;1.59;100.00;100353.09;5024665;28;20036;-85
2022/12/26 09:46:15;;;;;;;1.63;0.40;;;;;;;1.59;100.00;100360.91;5042590;28;20050;-79
2022/12/26 09:49:01;;;;;;;2.85;0.40;;;;;;;1.56;100.00;100361.09;5051513;28;20040;-79
2022/12/26 09:51:30;;;;;;;3.60;1.00;;;;;;;1.58;100.00;100358.38;5035287;28;20051;-85
2022/12/26 09:53:58;;;;;;;4.35;1.75;;;;;;;1.58;100.00;100366.22;5048771;28;20432;-85
2022/12/26 09:56:26;;;;;;;2.17;0.75;;;;;;;1.57;100.00;100369.75;5035422;28;20132;-79
2022/12/26 09:59:04;;;;;;;2.92;0.65;;;;;;;1.58;100.00;100374.88;5067104;28;20485;-79
2022/12/26 10:01:35;;;;;;;3.63;0.50;;;;;;;1.63;100.00;100372.00;5053913;28;20048;-86
2022/12/26 10:04:08;;;;;;;5.85;0.68;;;;;;;1.68;100.00;100366.53;5051206;28;20152;-86
2022/12/26 10:06:41;;;;;;;6.95;1.15;;;;;;;1.78;100.00;100379.88;5035369;28;20375;-79
2022/12/26 10:09:35;;;;;;;5.15;0.70;;;;;;;1.86;100.00;100380.28;5046166;28;20041;-78
2022/12/26 10:12:04;;;;;;;7.10;0.95;;;;;;;1.96;100.00;100380.53;5044413;28;20036;-85
2022/12/26 10:14:53;;;;;;;7.55;1.00;;;;;;;2.02;100.00;100385.44;5051636;28;20564;-85
2022/12/26 10:17:38;;;;;;;4.63;0.77;;;;;;;2.05;100.00;100393.06;5049290;28;20028;-85
2022/12/26 10:20:12;;;;;;;5.30;0.93;;;;;;;2.16;100.00;100387.22;5056041;28;20033;-85
2022/12/26 10:23:11;;;;;;;5.40;1.15;;;;;;;2.24;100.00;100389.38;5024868;28;20047;-85
2022/12/26 10:25:49;;;;;;;5.22;0.75;;;;;;;2.30;100.00;100394.22;5058594;28;20033;-80
2022/12/26 10:28:26;;;;;;;4.45;0.63;;;;;;;2.34;100.00;100398.31;5050944;28;20493;-81
2022/12/26 10:30:55;;;;;;;4.88;0.90;;;;;;;2.39;100.00;100392.81;5050707;28;20465;-86
2022/12/26 10:33:35;;;;;;;5.90;0.77;;;;;;;2.51;100.00;100403.44;5048281;28;20473;-85
2022/12/26 10:36:01;;;;;;;5.38;0.88;;;;;;;2.56;100.00;100397.03;5049851;28;20032;-80
2022/12/26 10:38:39;;;;;;;6.40;1.38;;;;;;;2.73;100.00;100406.44;5018250;28;20041;-81
2022/12/26 10:41:18;;;;;;;5.82;1.30;;;;;;;2.83;100.00;100396.28;5048786;28;20029;-86
2022/12/26 10:43:44;;;;;;;6.25;1.40;;;;;;;2.88;100.00;100402.97;5047452;28;20565;-85
2022/12/26 10:46:31;;;;;;;3.83;1.80;;;;;;;2.94;100.00;100400.81;5031123;28;20045;-81
2022/12/26 10:48:58;;;;;;;5.38;1.70;;;;;;;3.01;100.00;100411.69;5044622;28;20042;-81
2022/12/26 10:51:25;;;;;;;6.55;2.78;;;;;;;3.09;100.00;100395.56;5045404;28;20037;-85
2022/12/26 10:53:52;;;;;;;4.82;1.35;;;;;;;3.17;100.00;100402.91;5049131;28;20037;-84
2022/12/26 10:56:23;;;;;;;6.13;1.35;;;;;;;3.25;100.00;100399.81;5046123;28;20907;-85
2022/12/26 10:58:59;;;;;;;13.25;3.83;;;;;;;3.38;100.00;100412.94;5032951;28;20025;-85
2022/12/26 11:01:45;;;;;;;5.40;0.80;;;;;;;3.53;100.00;100419.78;5044811;28;20207;-85
2022/12/26 11:04:21;;;;;;;8.00;2.15;;;;;;;3.71;100.00;100411.69;5038967;28;20099;-85
2022/12/26 11:06:51;;;;;;;9.40;3.55;;;;;;;3.77;100.00;100413.91;5018414;28;20723;-85
2022/12/26 11:09:37;;;;;;;10.32;4.03;;;;;;;3.87;100.00;100418.53;5058650;28;20045;-85
2022/12/26 11:12:04;;;;;;;6.43;1.00;;;;;;;3.92;100.00;100424.25;5029154;28;20386;-85
2022/12/26 11:14:37;;;;;;;4.07;0.98;;;;;;;3.96;100.00;100416.16;5043647;28;20037;-84
2022/12/26 11:17:26;;;;;;;7.07;1.35;;;;;;;4.00;100.00;100427.22;5046741;28;20033;-85
2022/12/26 11:20:14;;;;;;;7.88;1.00;;;;;;;3.99;100.00;100425.56;5043196;28;20553;-86
2022/12/26 11:22:44;;;;;;;10.95;1.95;;;;;;;3.93;100.00;100418.97;5044837;28;20116;-89
2022/12/26 11:25:26;;;;;;;6.97;1.98;;;;;;;3.90;100.00;100413.91;5043691;28;20033;-89
2022/12/26 11:27:57;;;;;;;3.22;0.80;;;;;;;3.89;100.00;100419.22;5027886;28;20117;-89
2022/12/26 11:30:28;;;;;;;8.00;1.17;;;;;;;3.92;100.00;100414.66;5051079;28;20028;-90
2022/12/26 11:33:09;;;;;;;4.28;1.10;;;;;;;3.95;100.00;100418.84;5046615;28;20056;-90
2022/12/26 11:35:36;;;;;;;3.88;1.13;;;;;;;3.94;100.00;100415.41;5049980;28;20419;-89
2022/12/26 11:38:05;;;;;;;3.97;1.10;;;;;;;3.93;100.00;100416.34;5024485;28;20502;-89
2022/12/26 11:40:37;;;;;;;9.88;1.35;;;;;;;3.92;100.00;100419.88;5048291;28;20032;-88
2022/12/26 11:43:06;;;;;;;6.22;1.33;;;;;;;3.84;100.00;100432.63;5056633;28;20025;-90
2022/12/26 11:45:42;;;;;;;10.25;1.80;;;;;;;3.77;100.00;100426.97;5034699;28;20116;-89
2022/12/26 11:48:22;;;;;;;7.55;1.55;;;;;;;3.66;100.00;100419.84;5026501;28;20477;-91
2022/12/26 11:50:49;;;;;;;5.88;1.10;;;;;;;3.55;100.00;100437.97;5012119;28;20119;-91
2022/12/26 11:53:17;;;;;;;5.35;1.15;;;;;;;3.46;100.00;100436.78;5008230;28;20647;-91
2022/12/26 11:55:44;;;;;;;4.82;1.10;;;;;;;3.39;100.00;100435.50;5029439;28;20498;-90
2022/12/26 11:58:21;;;;;;;2.95;0.80;;;;;;;3.27;100.00;100434.50;5043688;28;20033;-90
2022/12/26 12:00:53;;;;;;;5.15;0.60;;;;;;;3.25;100.00;100426.75;5033424;28;20029;-89
2022/12/26 12:03:46;;;;;;;6.55;0.90;;;;;;;3.29;100.00;100422.19;5028667;28;20406;-90
2022/12/26 12:06:20;;;;;;;3.55;0.68;;;;;;;3.34;100.00;100433.19;5051056;28;20083;-91
2022/12/26 12:09:02;;;;;;;7.35;1.13;;;;;;;3.41;100.00;100420.59;5016393;28;20033;-90
2022/12/26 12:11:55;;;;;;;3.45;0.98;;;;;;;3.43;100.00;100421.31;5035240;28;20085;-91
2022/12/26 12:14:37;;;;;;;6.22;1.17;;;;;;;3.47;100.00;100413.16;5045044;28;20029;-90
2022/12/26 12:17:22;;;;;;;5.13;0.90;;;;;;;3.60;100.00;100418.44;5030711;28;20040;-90
2022/12/26 12:20:16;;;;;;;3.72;1.05;;;;;;;3.72;100.00;100414.19;5041035;28;20120;-89
2022/12/26 12:23:02;;;;;;;3.42;1.25;;;;;;;3.79;100.00;100419.84;5039107;28;20086;-90
2022/12/26 12:25:52;;;;;;;5.57;0.90;;;;;;;3.80;100.00;100410.25;5019464;28;20099;-90
2022/12/26 12:28:57;;;;;;;5.55;1.23;;;;;;;3.78;100.00;100405.09;5013362;28;20112;-90
2022/12/26 12:31:58;;;;;;;2.95;0.60;;;;;;;3.74;100.00;100402.81;4976182;28;20052;-89
2022/12/26 12:34:39;;;;;;;2.33;0.77;;;;;;;3.69;100.00;100400.50;5042613;28;20075;-90
2022/12/26 12:37:39;;;;;;;1.42;0.43;;;;;;;3.66;100.00;100406.75;5010224;28;20498;-90
2022/12/26 12:40:20;;;;;;;5.55;0.50;;;;;;;3.59;100.00;100411.53;5028726;28;20609;-91
2022/12/26 12:42:46;;;;;;;3.92;0.60;;;;;;;3.61;100.00;100419.28;5059240;28;20037;-89
2022/12/26 12:45:25;;;;;;;2.15;0.50;;;;;;;3.66;100.00;100413.75;5031363;28;20030;-89
2022/12/26 12:48:14;;;;;;;5.00;0.73;;;;;;;3.65;100.00;100407.69;5046156;28;20094;-89
2022/12/26 12:50:58;;;;;;;2.65;0.57;;;;;;;3.73;100.00;100396.72;5048335;28;20048;-90
2022/12/26 12:53:32;;;;;;;5.50;0.80;;;;;;;3.78;100.00;100397.25;5037239;28;20045;-88
2022/12/26 12:56:23;;;;;;;2.45;0.60;;;;;;;3.92;100.00;100395.50;5024220;28;20042;-89
2022/12/26 12:58:52;;;;;;;2.90;0.60;;;;;;;4.00;100.00;100406.28;5035179;28;20112;-89
2022/12/26 13:01:23;;;;;;;2.35;0.40;;;;;;;4.07;100.00;100401.50;5018014;28;20037;-90
2022/12/26 13:04:10;;;;;;;4.43;0.47;;;;;;;4.13;100.00;100408.94;5049984;28;20045;-89
2022/12/26 13:07:05;;;;;;;;;;;;;;;4.09;100.00;100417.94;5015711;28;20095;-89
2022/12/26 13:10:03;;;;;;;3.40;1.00;;;;;;;4.20;100.00;100418.03;5017517;28;20277;-90
2022/12/26 13:12:37;;;;;;;4.72;0.85;;;;;;;4.18;100.00;100419.94;5043322;28;20057;-89
2022/12/26 13:15:27;;;;;;;5.13;1.02;;;;;;;4.18;100.00;100422.53;5043326;28;20043;-89
2022/12/26 13:18:12;;;;;;;4.35;0.68;;;;;;;4.19;100.00;100428.59;5047865;28;20508;-89
2022/12/26 13:20:43;;;;;;;4.22;0.90;;;;;;;4.15;100.00;100440.22;5033056;28;20070;-89
2022/12/26 13:26:10;;;;;;;1.92;0.63;;;;;;;4.06;100.00;100436.44;5054806;28;20036;-89
2022/12/26 13:28:51;;;;;;;3.55;0.60;;;;;;;4.01;100.00;100439.38;5037922;28;20043;-89
2022/12/26 13:31:16;;;;;;;2.25;0.65;;;;;;;3.95;100.00;100432.75;5051100;28;20029;-89
2022/12/26 13:33:43;;;;;;;1.90;0.50;;;;;;;3.94;100.00;100440.69;5018188;28;20481;-90
2022/12/26 13:36:09;;;;;;;1.77;0.47;;;;;;;3.91;100.00;100444.38;5044827;28;20477;-91
2022/12/26 13:39:10;;;;;;;0.40;0.32;;;;;;;3.85;100.00;100447.38;5053103;28;20041;-91
2022/12/26 13:44:21;;;;;;;1.55;0.35;;;;;;;3.80;100.00;100434.63;5049425;28;20039;-89
2022/12/26 13:46:47;;;;;;;2.83;0.70;;;;;;;3.79;100.00;100445.19;5022351;28;20052;-90
2022/12/26 13:49:37;;;;;;;3.75;0.40;;;;;;;3.83;100.00;100449.25;5033462;28;20034;-90
2022/12/26 13:52:09;;;;;;;1.90;0.57;;;;;;;3.89;100.00;100455.84;5043978;28;20086;-90
2022/12/26 13:54:37;;;;;;;2.47;0.70;;;;;;;3.94;100.00;100456.38;5069804;28;20041;-89
2022/12/26 13:57:43;;;;;;;4.00;0.82;;;;;;;3.98;100.00;100468.34;5052766;28;20048;-90